Wenonah, NJ (08090)

7:55 AM EDT on September 02, 2014 (GMT -0400)
DV Floral Group | Change Station
CLOSE
Current Station
Personal Weather Station
Location: Sewell, NJ
Elevation: 49 ft
Nearby Weather Stations

Elev 49 ft 39.78 °N, 75.16 °W | Updated 2 seconds ago

Partly Cloudy
Partly Cloudy
76.1 °F
Feels Like 76 °F
N
4.0
Wind Variable Wind from WNW
Gusts 4.0 mph

Today
High -- | Low -- °F
--% Chance of Precip.
Yesterday
High -- | Low -- °F
Precip. -- in
6:29 AM 7:30 PM
Waxing Crescent, 50% visible
Pressure 29.95 in
Visibility 10.0 miles
Clouds Few 11000 ft
Scattered Clouds 20000 ft
Scattered Clouds 30000 ft
Heat Index 76 °F
Dew Point 74 °F
Humidity 92%
Rainfall 0.00 in
Snow Depth Not available.
UV 0 out of 12
Pollen 8.60 out of 12
Ozone Good
PM2.5 Moderate
Flu Activity Not available.
METAR KPHL 021054Z 23008KT 10SM FEW110 SCT200 SCT300 24/22 A2995 RMK AO2 SLP140 T02440217

More Conditions Fewer Conditions

Pressure 29.95 in
Visibility 10.0 miles
Clouds Few 11000 ft
Scattered Clouds 20000 ft
Scattered Clouds 30000 ft
Heat Index 76 °F
Dew Point 74 °F
Humidity 92%
Rainfall 0.00 in
Snow Depth Not available.
UV 0 out of 12
Pollen 8.60 out of 12
Ozone Good
PM2.5 Moderate
Flu Activity Not available.
METAR KPHL 021054Z 23008KT 10SM FEW110 SCT200 SCT300 24/22 A2995 RMK AO2 SLP140 T02440217

More Conditions Fewer Conditions

10-Day Weather Forecast

Almanac

Astronomy

Sep. 02, 2014 Rise Set
Actual Time 6:29 AM EDT 7:30 PM EDT
Civil Twilight 6:01 AM EDT 7:57 PM EDT
Nautical Twilight 5:28 AM EDT 8:30 PM EDT
Astronomical Twilight 4:54 AM EDT 9:04 PM EDT
Moon 2:10 PM EDT No Moon Set
Length of Visible Light 13h 56m
Length of Day
13h 00m
Tomorrow will be 2m 31s shorter.
Waxing Crescent, 50% of the Moon is Illuminated
Today
Waxing Crescent
Sep 8
Full
Sep 15
Last Quarter
Sep 24
New
Oct 1
First Quarter

Today's Extremes

State Highs State Lows

Community

WunderPhotos

Upload Photos

1,749,621 photos uploaded!

WunderBlogs® & News

By Dr. Jeff Masters
Director of Meteorology, Weather Underground
By Kari Strenfel
Meteorologist, Weather Underground
By Christopher C. Burt
Weather Historian, Weather Underground
September 2, 2014
September 2, 2014
September 2, 2014

Nearby

Air Quality

  Air Quality AQ Index Pollutant
Yesterday Good
PM2.5
Yesterday Good
OZONE
Current Moderate
PM2.5
Current Good
OZONE
Tuesday Moderate
OZONE
Tuesday Moderate
PM2.5
Wednesday Moderate
OZONE
Wednesday Good
PM2.5
Thursday Moderate
OZONE
Thursday Moderate
PM2.5

Snow Depth

Station Depth Elevation
No new snow has been reported.

Earthquake Activity

City Distance Mag. Time & Date
No recent earthquake activity has been reported nearby.
Minimum magnitude displayed is 2.5.

Coastal Water Temperatures

Place Temperature
Ship John Shoal, NJ 77.0 °F
Cape May, NJ 80.1 °F
Reedy Point, DE 79.0 °F
Delaware City, DE 78.1 °F
Marcus Hook, PA 78.1 °F

Nearby Weather Stations